createdAt,value
2022-11-04T00:01:08.072Z,100065.69
2022-11-04T00:03:31.701Z,100055.47
2022-11-04T00:05:55.196Z,100051.97
2022-11-04T00:08:26.361Z,100056.06
2022-11-04T00:11:03.759Z,100053.97
2022-11-04T00:13:30.135Z,100056.88
2022-11-04T00:16:13.449Z,100056.06
2022-11-04T00:18:37.701Z,100059.72
2022-11-04T00:21:18.675Z,100049.13
2022-11-04T00:24:01.157Z,100052.50
2022-11-04T00:26:41.930Z,100049.25
2022-11-04T00:29:05.598Z,100054.00
2022-11-04T00:31:46.358Z,100041.88
2022-11-04T00:34:10.058Z,100046.50
2022-11-04T00:36:33.594Z,100041.09
2022-11-04T00:38:59.184Z,100038.53
2022-11-04T00:41:30.419Z,100035.25
2022-11-04T00:43:54.307Z,100027.72
2022-11-04T00:46:17.834Z,100031.94
2022-11-04T00:48:41.437Z,100030.53
2022-11-04T00:51:05.111Z,100030.81
2022-11-04T00:53:28.765Z,100033.06
2022-11-04T00:55:53.726Z,100032.47
2022-11-04T00:58:17.297Z,100029.53
2022-11-04T01:00:40.846Z,100029.81
2022-11-04T01:03:04.441Z,100025.28
2022-11-04T01:05:28.391Z,100011.56
2022-11-04T01:07:51.980Z,100005.19
2022-11-04T01:10:15.611Z,100008.03
2022-11-04T01:12:40.613Z,100008.19
2022-11-04T01:15:04.249Z,100006.19
2022-11-04T01:17:27.944Z,100004.84
2022-11-04T01:19:51.450Z,100001.44
2022-11-04T01:22:15.020Z,100002.28
2022-11-04T01:24:38.580Z,99990.03
2022-11-04T01:27:02.167Z,99994.44
2022-11-04T01:29:27.356Z,99991.06
2022-11-04T01:31:50.958Z,99987.94
2022-11-04T01:34:14.491Z,99991.50
2022-11-04T01:36:38.104Z,100004.19
2022-11-04T01:39:01.606Z,99987.97
2022-11-04T01:41:28.399Z,99982.63
2022-11-04T01:43:54.389Z,99986.84
2022-11-04T01:46:28.669Z,99995.81
2022-11-04T01:48:54.036Z,99993.03
2022-11-04T01:51:17.644Z,99992.34
2022-11-04T01:53:44.870Z,99983.81
2022-11-04T01:56:12.998Z,99982.63
2022-11-04T01:58:36.971Z,99994.63
2022-11-04T02:01:00.725Z,99988.88
2022-11-04T02:03:30.510Z,99986.72
2022-11-04T02:05:55.501Z,99987.03
2022-11-04T02:08:19.875Z,99990.13
2022-11-04T02:10:50.229Z,99975.81
2022-11-04T02:13:12.990Z,99979.25
2022-11-04T02:15:45.874Z,99971.69
2022-11-04T02:18:33.699Z,99966.03
2022-11-04T02:21:45.021Z,99970.56
2022-11-04T02:24:49.758Z,99968.47
2022-11-04T02:27:47.312Z,99969.69
2022-11-04T02:30:15.142Z,99960.09
2022-11-04T02:33:15.133Z,99958.41
2022-11-04T02:35:45.925Z,99957.00
2022-11-04T02:38:19.897Z,99960.41
2022-11-04T02:40:51.524Z,99952.66
2022-11-04T02:43:23.551Z,99958.97
2022-11-04T02:45:50.647Z,99951.63
2022-11-04T02:48:22.772Z,99944.69
2022-11-04T02:50:52.100Z,99947.38
2022-11-04T02:53:21.675Z,99939.59
2022-11-04T02:55:48.564Z,99940.72
2022-11-04T02:58:17.302Z,99940.13
2022-11-04T03:00:43.366Z,99940.53
2022-11-04T03:03:14.205Z,99934.84
2022-11-04T03:05:41.250Z,99932.50
2022-11-04T03:08:10.802Z,99934.00
2022-11-04T03:10:39.841Z,99942.28
2022-11-04T03:13:13.148Z,99951.03
2022-11-04T03:15:39.143Z,99940.47
2022-11-04T03:18:14.845Z,99942.44
2022-11-04T03:20:40.073Z,99946.66
2022-11-04T03:23:03.973Z,99944.97
2022-11-04T03:25:33.505Z,99946.28
2022-11-04T03:28:05.266Z,99943.34
2022-11-04T03:30:39.931Z,99931.03
2022-11-04T03:33:10.507Z,99934.31
2022-11-04T03:35:35.225Z,99929.56
2022-11-04T03:37:59.571Z,99930.00
2022-11-04T03:40:23.987Z,99938.88
2022-11-04T03:42:57.019Z,99954.63
2022-11-04T03:45:20.975Z,99972.88
2022-11-04T03:47:45.300Z,99974.75
2022-11-04T03:50:17.826Z,99982.41
2022-11-04T03:52:41.820Z,99979.56
2022-11-04T03:55:06.477Z,99972.13
2022-11-04T03:57:47.510Z,99966.38
2022-11-04T04:00:14.597Z,99963.31
2022-11-04T04:03:02.712Z,99957.09
2022-11-04T04:05:31.332Z,99953.31
2022-11-04T04:08:21.365Z,99949.19
2022-11-04T04:10:54.352Z,99955.13
2022-11-04T04:13:31.852Z,99964.34
2022-11-04T04:16:01.577Z,99974.94
2022-11-04T04:18:33.240Z,99969.09
2022-11-04T04:21:03.252Z,99971.53
2022-11-04T04:23:44.766Z,99979.31
2022-11-04T04:26:28.765Z,99973.22
2022-11-04T04:28:53.682Z,99974.25
2022-11-04T04:31:39.346Z,99970.88
2022-11-04T04:34:03.166Z,99965.19
2022-11-04T04:36:29.269Z,99964.41
2022-11-04T04:39:18.765Z,99967.50
2022-11-04T04:42:02.066Z,99951.41
2022-11-04T04:44:45.077Z,99948.16
2022-11-04T04:47:10.688Z,99950.13
2022-11-04T04:49:36.134Z,99944.34
2022-11-04T04:52:02.171Z,99941.41
2022-11-04T04:54:25.813Z,99942.81
2022-11-04T04:56:49.377Z,99944.19
2022-11-04T04:59:12.873Z,99948.47
2022-11-04T05:01:36.504Z,99948.16
2022-11-04T05:04:00.154Z,99955.66
2022-11-04T05:06:23.933Z,99951.88
2022-11-04T05:08:48.829Z,99963.16
2022-11-04T05:11:12.709Z,99961.72
2022-11-04T05:13:36.289Z,99962.03
2022-11-04T05:16:05.945Z,99977.69
2022-11-04T05:18:29.531Z,99972.03
2022-11-04T05:20:53.102Z,99974.31
2022-11-04T05:23:16.721Z,99962.84
2022-11-04T05:25:43.021Z,99977.00
2022-11-04T05:28:07.310Z,99973.03
2022-11-04T05:30:31.136Z,99978.84
2022-11-04T05:32:58.408Z,99984.31
2022-11-04T05:35:25.307Z,99985.59
2022-11-04T05:37:48.903Z,99981.53
2022-11-04T05:40:13.683Z,99992.81
2022-11-04T05:42:38.590Z,99982.78
2022-11-04T05:45:02.142Z,99989.00
2022-11-04T05:47:25.672Z,99993.34
2022-11-04T05:49:49.237Z,99993.66
2022-11-04T05:52:12.781Z,100004.69
2022-11-04T05:54:38.518Z,100010.47
2022-11-04T05:57:02.098Z,100009.34
2022-11-04T05:59:27.021Z,100017.94
2022-11-04T06:01:51.466Z,100021.47
2022-11-04T06:04:18.778Z,100016.66
2022-11-04T06:06:42.733Z,100024.44
2022-11-04T06:09:06.399Z,100023.88
2022-11-04T06:11:31.546Z,100023.75
2022-11-04T06:13:57.102Z,100027.28
2022-11-04T06:16:22.118Z,100025.44
2022-11-04T06:18:45.657Z,100022.75
2022-11-04T06:21:24.925Z,100023.19
2022-11-04T06:23:48.584Z,100037.28
2022-11-04T06:26:13.496Z,100046.22
2022-11-04T06:28:37.158Z,100056.53
2022-11-04T06:31:02.605Z,100050.19
2022-11-04T06:33:30.445Z,100045.09
2022-11-04T06:35:59.557Z,100050.44
2022-11-04T06:38:23.134Z,100040.84
2022-11-04T06:40:46.704Z,100054.53
2022-11-04T06:43:10.554Z,100059.91
2022-11-04T06:45:34.425Z,100063.16
2022-11-04T06:47:57.989Z,100069.25
2022-11-04T06:50:23.318Z,100076.72
2022-11-04T06:52:46.879Z,100067.56
2022-11-04T06:55:11.347Z,100065.72
2022-11-04T06:57:34.934Z,100076.03
2022-11-04T06:59:58.603Z,100071.91
2022-11-04T07:02:22.267Z,100082.13
2022-11-04T07:04:45.894Z,100090.59
2022-11-04T07:07:11.124Z,100092.13
2022-11-04T07:09:35.421Z,100092.84
2022-11-04T07:11:58.929Z,100087.88
2022-11-04T07:14:22.558Z,100093.84
2022-11-04T07:16:46.151Z,100097.38
2022-11-04T07:19:09.839Z,100096.66
2022-11-04T07:21:33.681Z,100095.94
2022-11-04T07:23:58.622Z,100103.56
2022-11-04T07:26:22.161Z,100094.91
2022-11-04T07:28:46.024Z,100098.75
2022-11-04T07:31:12.938Z,100092.78
2022-11-04T07:33:36.991Z,100091.28
2022-11-04T07:36:05.041Z,100085.75
2022-11-04T07:38:28.601Z,100087.41
2022-11-04T07:40:53.577Z,100099.16
2022-11-04T07:43:17.534Z,100085.53
2022-11-04T07:45:42.402Z,100072.59
2022-11-04T07:48:06.682Z,100076.44
2022-11-04T07:50:30.611Z,100073.63
2022-11-04T07:52:54.197Z,100079.41
2022-11-04T07:55:18.644Z,100071.59
2022-11-04T07:57:43.586Z,100075.66
2022-11-04T08:00:08.605Z,100075.28
2022-11-04T08:02:36.291Z,100081.09
2022-11-04T08:04:59.942Z,100072.38
2022-11-04T08:07:23.507Z,100072.75
2022-11-04T08:09:47.072Z,100064.44
2022-11-04T08:12:10.697Z,100069.25
2022-11-04T08:14:35.663Z,100062.63
2022-11-04T08:17:00.073Z,100065.59
2022-11-04T08:19:23.618Z,100066.88
2022-11-04T08:21:47.393Z,100062.09
2022-11-04T08:24:10.917Z,100062.88
2022-11-04T08:26:34.572Z,100074.03
2022-11-04T08:28:59.394Z,100073.78
2022-11-04T08:31:26.607Z,100081.34
2022-11-04T08:33:50.347Z,100081.59
2022-11-04T08:36:17.829Z,100075.91
2022-11-04T08:38:41.517Z,100093.19
2022-11-04T08:41:07.830Z,100093.59
2022-11-04T08:43:31.676Z,100095.66
2022-11-04T08:45:55.684Z,100096.59
2022-11-04T08:48:20.686Z,100097.56
2022-11-04T08:50:45.104Z,100102.38
2022-11-04T08:53:08.873Z,100108.06
2022-11-04T08:55:33.696Z,100101.59
2022-11-04T08:57:57.399Z,100110.22
2022-11-04T09:00:21.281Z,100112.75
2022-11-04T09:02:44.872Z,100111.28
2022-11-04T09:05:10.316Z,100108.75
2022-11-04T09:07:35.437Z,100104.91
2022-11-04T09:09:59.020Z,100110.47
2022-11-04T09:12:22.703Z,100105.38
2022-11-04T09:14:46.241Z,100103.28
2022-11-04T09:17:09.773Z,100100.44
2022-11-04T09:19:33.709Z,100099.25
2022-11-04T09:21:58.673Z,100096.38
2022-11-04T09:24:22.287Z,100089.78
2022-11-04T09:26:45.897Z,100089.19
2022-11-04T09:29:09.911Z,100079.00
2022-11-04T09:31:33.597Z,100069.28
2022-11-04T09:33:57.598Z,100062.56
2022-11-04T09:36:21.192Z,100061.28
2022-11-04T09:38:46.281Z,100060.44
2022-11-04T09:41:52.720Z,100062.41
2022-11-04T09:44:27.211Z,100060.41
2022-11-04T09:46:54.279Z,100062.53
2022-11-04T09:49:18.144Z,100060.56
2022-11-04T09:51:54.152Z,100065.13
2022-11-04T09:54:24.274Z,100060.34
2022-11-04T09:56:51.356Z,100070.19
2022-11-04T09:59:26.527Z,100080.03
2022-11-04T10:02:03.796Z,100072.19
2022-11-04T10:04:46.033Z,100080.38
2022-11-04T10:07:26.989Z,100080.22
2022-11-04T10:10:04.399Z,100085.91
2022-11-04T10:12:48.693Z,100103.84
2022-11-04T10:15:38.826Z,100115.34
2022-11-04T10:18:19.466Z,100127.06
2022-11-04T10:20:56.381Z,100142.38
2022-11-04T10:23:24.214Z,100139.38
2022-11-04T10:25:54.941Z,100126.06
2022-11-04T10:28:21.479Z,100127.41
2022-11-04T10:30:48.986Z,100111.28
2022-11-04T10:33:21.414Z,100101.63
2022-11-04T10:35:49.985Z,100110.34
2022-11-04T10:38:20.856Z,100105.84
2022-11-04T10:40:51.655Z,100112.56
2022-11-04T10:43:22.702Z,100131.59
2022-11-04T10:45:56.647Z,100143.31
2022-11-04T10:48:28.905Z,100144.94
2022-11-04T10:50:57.277Z,100140.13
2022-11-04T10:53:24.827Z,100146.91
2022-11-04T10:55:58.186Z,100156.88
2022-11-04T10:58:26.094Z,100153.56
2022-11-04T11:00:51.739Z,100146.69
2022-11-04T11:03:34.972Z,100151.69
2022-11-04T11:06:22.760Z,100132.88
2022-11-04T11:08:47.687Z,100126.84
2022-11-04T11:11:15.380Z,100126.47
2022-11-04T11:13:42.470Z,100137.13
2022-11-04T11:16:11.802Z,100143.28
2022-11-04T11:18:37.225Z,100159.56
2022-11-04T11:21:14.246Z,100158.41
2022-11-04T11:23:44.314Z,100163.47
2022-11-04T11:26:11.814Z,100170.50
2022-11-04T11:28:38.925Z,100179.44
2022-11-04T11:31:06.722Z,100189.06
2022-11-04T11:33:31.904Z,100188.06
2022-11-04T11:35:58.247Z,100195.22
2022-11-04T11:38:25.690Z,100192.75
2022-11-04T11:41:18.775Z,100195.75
2022-11-04T11:43:41.274Z,100198.53
2022-11-04T11:46:05.430Z,100190.59
2022-11-04T11:48:36.566Z,100197.94
2022-11-04T11:51:01.084Z,100194.31
2022-11-04T11:53:25.538Z,100201.16
2022-11-04T11:55:57.302Z,100199.63
2022-11-04T12:01:25.571Z,100191.28
2022-11-04T12:09:39.754Z,100194.13
2022-11-04T12:12:19.385Z,100189.88
2022-11-04T12:14:55.590Z,100193.59
2022-11-04T12:17:36.886Z,100192.28
2022-11-04T12:20:17.168Z,100187.56
2022-11-04T12:22:50.633Z,100187.56
2022-11-04T12:25:24.421Z,100185.88
2022-11-04T12:27:57.837Z,100189.34
2022-11-04T12:30:31.166Z,100184.66
2022-11-04T12:33:18.917Z,100180.72
2022-11-04T12:35:57.237Z,100184.22
2022-11-04T12:38:44.307Z,100183.75
2022-11-04T12:41:41.888Z,100183.06
2022-11-04T12:44:10.662Z,100184.97
2022-11-04T12:46:41.762Z,100186.75
2022-11-04T12:49:35.434Z,100185.59
2022-11-04T12:52:11.580Z,100186.91
2022-11-04T12:54:59.876Z,100190.06
2022-11-04T12:57:34.574Z,100197.16
2022-11-04T13:00:11.363Z,100195.75
2022-11-04T13:02:41.303Z,100199.63
2022-11-04T13:05:19.980Z,100207.41
2022-11-04T13:07:51.549Z,100208.63
2022-11-04T13:10:22.865Z,100209.00
2022-11-04T13:12:48.767Z,100207.00
2022-11-04T13:15:19.838Z,100213.09
2022-11-04T13:17:47.204Z,100214.81
2022-11-04T13:20:34.531Z,100216.66
2022-11-04T13:23:03.445Z,100215.56
2022-11-04T13:25:34.874Z,100228.78
2022-11-04T13:27:59.940Z,100226.41
2022-11-04T13:30:32.647Z,100229.34
2022-11-04T13:33:02.086Z,100225.94
2022-11-04T13:35:38.304Z,100236.88
2022-11-04T13:38:08.825Z,100230.94
2022-11-04T13:40:43.664Z,100236.09
2022-11-04T13:43:40.356Z,100229.31
2022-11-04T13:46:05.296Z,100230.84
2022-11-04T13:48:33.301Z,100229.31
2022-11-04T13:51:02.378Z,100229.13
2022-11-04T13:53:44.460Z,100225.56
2022-11-04T13:56:31.537Z,100220.63
2022-11-04T13:58:54.738Z,100220.69
2022-11-04T14:01:31.129Z,100218.22
2022-11-04T14:04:00.290Z,100229.00
2022-11-04T14:06:53.273Z,100222.69
2022-11-04T14:09:37.678Z,100225.28
2022-11-04T14:12:35.633Z,100226.69
2022-11-04T14:15:11.688Z,100220.69
2022-11-04T14:18:05.880Z,100221.47
2022-11-04T14:20:36.979Z,100226.13
2022-11-04T14:23:03.467Z,100226.59
2022-11-04T14:25:34.929Z,100224.06
2022-11-04T14:28:01.761Z,100231.13
2022-11-04T14:30:43.408Z,100235.94
2022-11-04T14:33:22.972Z,100228.94
2022-11-04T14:35:46.751Z,100239.28
2022-11-04T14:38:27.369Z,100242.16
2022-11-04T14:40:54.486Z,100242.38
2022-11-04T14:43:33.670Z,100246.25
2022-11-04T14:45:58.266Z,100241.72
2022-11-04T14:48:22.445Z,100244.78
2022-11-04T14:50:52.377Z,100241.09
2022-11-04T14:53:25.162Z,100245.88
2022-11-04T14:55:48.951Z,100240.66
2022-11-04T14:58:25.540Z,100246.41
2022-11-04T15:00:57.142Z,100256.06
2022-11-04T15:04:09.415Z,100254.13
2022-11-04T15:06:13.512Z,100260.13
2022-11-04T15:08:44.845Z,100267.22
2022-11-04T15:11:17.461Z,100268.22
2022-11-04T15:13:47.622Z,100269.50
2022-11-04T15:16:16.453Z,100268.50
2022-11-04T15:18:41.394Z,100272.50
2022-11-04T15:21:06.563Z,100266.56
2022-11-04T15:23:33.252Z,100268.28
2022-11-04T15:25:59.969Z,100269.00
2022-11-04T15:28:26.767Z,100263.06
2022-11-04T15:31:07.434Z,100267.06
2022-11-04T15:33:32.445Z,100268.34
2022-11-04T15:35:57.587Z,100277.50
2022-11-04T15:38:21.501Z,100277.31
2022-11-04T15:40:46.405Z,100287.38
2022-11-04T15:43:12.090Z,100291.25
2022-11-04T15:45:42.612Z,100296.06
2022-11-04T15:48:26.605Z,100295.91
2022-11-04T15:51:01.390Z,100295.34
2022-11-04T15:53:25.143Z,100297.09
2022-11-04T15:55:49.825Z,100296.16
2022-11-04T15:58:17.191Z,100294.44
2022-11-04T16:00:41.290Z,100285.09
2022-11-04T16:03:05.421Z,100285.38
2022-11-04T16:05:31.300Z,100283.13
2022-11-04T16:07:59.511Z,100289.06
2022-11-04T16:10:31.905Z,100295.03
2022-11-04T16:12:58.625Z,100303.66
2022-11-04T16:15:42.319Z,100303.53
2022-11-04T16:18:08.103Z,100309.50
2022-11-04T16:20:32.526Z,100312.91
2022-11-04T16:23:00.206Z,100323.38
2022-11-04T16:25:25.597Z,100316.00
2022-11-04T16:27:49.426Z,100321.97
2022-11-04T16:30:20.901Z,100320.13
2022-11-04T16:32:49.064Z,100329.34
2022-11-04T16:35:23.917Z,100324.66
2022-11-04T16:37:47.710Z,100329.66
2022-11-04T16:40:11.942Z,100327.22
2022-11-04T16:42:35.518Z,100334.72
2022-11-04T16:45:03.320Z,100337.97
2022-11-04T16:47:28.590Z,100339.38
2022-11-04T16:49:53.505Z,100349.19
2022-11-04T16:52:25.556Z,100348.03
2022-11-04T16:54:49.457Z,100346.63
2022-11-04T16:57:15.656Z,100349.91
2022-11-04T16:59:40.093Z,100349.47
2022-11-04T17:02:22.417Z,100355.13
2022-11-04T17:04:46.350Z,100355.28
2022-11-04T17:07:11.269Z,100361.66
2022-11-04T17:09:34.897Z,100370.56
2022-11-04T17:11:58.489Z,100368.03
2022-11-04T17:14:22.438Z,100361.50
2022-11-04T17:16:46.109Z,100361.38
2022-11-04T17:19:16.245Z,100364.50
2022-11-04T17:21:40.640Z,100368.59
2022-11-04T17:24:06.489Z,100373.97
2022-11-04T17:26:30.042Z,100370.88
2022-11-04T17:28:53.591Z,100376.41
2022-11-04T17:31:20.999Z,100373.25
2022-11-04T17:33:44.622Z,100376.25
2022-11-04T17:36:10.605Z,100373.81
2022-11-04T17:38:34.169Z,100371.56
2022-11-04T17:41:16.586Z,100369.72
2022-11-04T17:43:57.477Z,100382.78
2022-11-04T17:46:37.916Z,100382.06
2022-11-04T17:49:02.115Z,100387.13
2022-11-04T17:51:26.022Z,100389.81
2022-11-04T17:53:50.062Z,100388.53
2022-11-04T17:56:17.753Z,100387.84
2022-11-04T17:58:41.326Z,100387.69
2022-11-04T18:01:08.817Z,100390.97
2022-11-04T18:03:32.551Z,100398.03
2022-11-04T18:05:59.978Z,100395.06
2022-11-04T18:08:23.616Z,100399.75
2022-11-04T18:10:47.167Z,100402.13
2022-11-04T18:13:12.519Z,100396.19
2022-11-04T18:15:36.298Z,100407.66
2022-11-04T18:17:59.935Z,100408.88
2022-11-04T18:20:23.510Z,100416.66
2022-11-04T18:22:47.422Z,100411.72
2022-11-04T18:25:12.318Z,100416.88
2022-11-04T18:27:36.176Z,100411.47
2022-11-04T18:30:01.122Z,100421.25
2022-11-04T18:32:24.857Z,100416.13
2022-11-04T18:34:50.143Z,100417.97
2022-11-04T18:37:13.766Z,100418.22
2022-11-04T18:39:38.477Z,100420.91
2022-11-04T18:42:02.215Z,100426.88
2022-11-04T18:44:25.989Z,100419.06
2022-11-04T18:46:53.019Z,100421.19
2022-11-04T18:49:17.880Z,100429.97
2022-11-04T18:51:41.729Z,100426.44
2022-11-04T18:54:07.208Z,100424.03
2022-11-04T18:56:30.859Z,100426.16
2022-11-04T18:58:54.371Z,100432.13
2022-11-04T19:01:22.421Z,100428.97
2022-11-04T19:03:48.026Z,100424.75
2022-11-04T19:06:17.335Z,100430.13
2022-11-04T19:08:46.482Z,100432.78
2022-11-04T19:11:17.751Z,100428.41
2022-11-04T19:13:41.553Z,100423.72
2022-11-04T19:16:07.309Z,100430.13
2022-11-04T19:18:30.878Z,100432.06
2022-11-04T19:20:56.701Z,100435.91
2022-11-04T19:23:20.554Z,100428.09
2022-11-04T19:25:44.469Z,100441.44
2022-11-04T19:28:32.603Z,100443.00
2022-11-04T19:30:59.922Z,100449.34
2022-11-04T19:33:23.545Z,100453.16
2022-11-04T19:35:47.098Z,100444.66
2022-11-04T19:38:12.409Z,100447.78
2022-11-04T19:40:36.157Z,100443.97
2022-11-04T19:43:10.657Z,100448.19
2022-11-04T19:45:34.368Z,100446.34
2022-11-04T19:47:58.118Z,100450.03
2022-11-04T19:50:22.393Z,100446.22
2022-11-04T19:52:45.952Z,100447.88
2022-11-04T19:55:11.468Z,100449.31
2022-11-04T19:57:35.349Z,100441.94
2022-11-04T19:59:58.963Z,100438.69
2022-11-04T20:02:23.201Z,100438.00
2022-11-04T20:04:47.850Z,100437.84
2022-11-04T20:07:11.404Z,100439.53
2022-11-04T20:09:34.971Z,100448.75
2022-11-04T20:12:17.373Z,100458.88
2022-11-04T20:14:40.958Z,100449.72
2022-11-04T20:17:06.384Z,100442.22
2022-11-04T20:19:30.006Z,100456.66
2022-11-04T20:21:54.133Z,100457.31
2022-11-04T20:24:17.759Z,100460.28
2022-11-04T20:26:44.510Z,100470.78
2022-11-04T20:29:09.727Z,100471.78
2022-11-04T20:31:37.090Z,100473.75
2022-11-04T20:34:02.487Z,100476.00
2022-11-04T20:36:29.052Z,100476.59
2022-11-04T20:38:57.713Z,100477.03
2022-11-04T20:41:21.258Z,100472.06
2022-11-04T20:43:44.925Z,100479.75
2022-11-04T20:46:14.077Z,100476.94
2022-11-04T20:48:38.024Z,100480.22
2022-11-04T20:51:08.080Z,100482.97
2022-11-04T20:53:31.742Z,100482.38
2022-11-04T20:55:55.274Z,100477.56
2022-11-04T20:58:18.915Z,100488.59
2022-11-04T21:00:42.551Z,100495.50
2022-11-04T21:03:07.523Z,100495.13
2022-11-04T21:05:31.246Z,100496.69
2022-11-04T21:07:54.795Z,100501.00
2022-11-04T21:10:23.899Z,100496.28
2022-11-04T21:12:48.505Z,100506.47
2022-11-04T21:15:35.587Z,100507.31
2022-11-04T21:17:59.158Z,100514.31
2022-11-04T21:20:24.070Z,100518.53
2022-11-04T21:22:47.844Z,100516.91
2022-11-04T21:25:11.448Z,100510.50
2022-11-04T21:27:35.101Z,100510.84
2022-11-04T21:29:58.639Z,100513.28
2022-11-04T21:32:22.322Z,100515.38
2022-11-04T21:34:45.835Z,100509.13
2022-11-04T21:37:10.784Z,100518.91
2022-11-04T21:39:34.334Z,100518.66
2022-11-04T21:41:57.909Z,100518.66
2022-11-04T21:44:21.484Z,100519.63
2022-11-04T21:46:45.173Z,100523.97
2022-11-04T21:49:08.753Z,100522.97
2022-11-04T21:51:34.474Z,100529.50
2022-11-04T21:54:00.395Z,100526.38
2022-11-04T21:56:27.012Z,100524.63
2022-11-04T21:58:50.685Z,100522.94
2022-11-04T22:01:17.860Z,100520.34
2022-11-04T22:03:41.739Z,100521.81
2022-11-04T22:06:07.842Z,100524.44
2022-11-04T22:08:32.045Z,100526.78
2022-11-04T22:10:57.651Z,100524.09
2022-11-04T22:13:23.289Z,100523.25
2022-11-04T22:16:01.781Z,100528.75
2022-11-04T22:18:25.435Z,100532.44
2022-11-04T22:20:48.958Z,100531.28
2022-11-04T22:23:12.883Z,100537.88
2022-11-04T22:25:36.661Z,100534.94
2022-11-04T22:28:01.602Z,100541.22
2022-11-04T22:30:25.496Z,100542.06
2022-11-04T22:32:49.108Z,100542.38
2022-11-04T22:35:12.608Z,100543.34
2022-11-04T22:37:36.216Z,100543.44
2022-11-04T22:39:59.882Z,100550.97
2022-11-04T22:42:23.463Z,100553.41
2022-11-04T22:44:48.346Z,100551.13
2022-11-04T22:47:11.978Z,100550.25
2022-11-04T22:49:36.353Z,100559.56
2022-11-04T22:51:59.944Z,100557.47
2022-11-04T22:54:23.494Z,100557.88
2022-11-04T22:56:47.089Z,100554.53
2022-11-04T22:59:12.209Z,100561.28
2022-11-04T23:01:37.245Z,100556.69
2022-11-04T23:04:01.101Z,100560.91
2022-11-04T23:06:26.433Z,100568.72
2022-11-04T23:08:51.351Z,100565.69
2022-11-04T23:11:37.481Z,100561.69
2022-11-04T23:14:20.811Z,100566.81
2022-11-04T23:17:05.431Z,100564.75
2022-11-04T23:19:30.963Z,100570.53
2022-11-04T23:22:11.976Z,100575.06
2022-11-04T23:24:52.742Z,100569.75
2022-11-04T23:27:36.488Z,100581.03
2022-11-04T23:30:18.865Z,100589.66
2022-11-04T23:32:44.248Z,100586.91
2022-11-04T23:35:28.377Z,100585.59
2022-11-04T23:37:59.529Z,100591.44
2022-11-04T23:40:23.080Z,100593.22
2022-11-04T23:42:46.577Z,100586.59
2022-11-04T23:45:29.017Z,100590.84
2022-11-04T23:48:14.653Z,100582.94
2022-11-04T23:50:55.776Z,100598.44
2022-11-04T23:53:38.917Z,100597.34
2022-11-04T23:56:20.411Z,100606.75
2022-11-04T23:59:01.757Z,100599.09
